Time;durP1;ratioP1;P1;durP2;ratioP2;P2;SDS_P1;SDS_P2;PMS_P1;PMS_P2;Temp;Humidity;BMP_temperature;BMP_pressure;BME280_temperature;BME280_humidity;BME280_pressure;Samples;Min_cycle;Max_cycle;Signal;HPM_P1;HPM_P2
2023/06/19 00:02:09;;;;;;;10.68;7.63;;;;;;;;;;5021123;28;20423;-55
2023/06/19 00:04:34;;;;;;;13.93;7.80;;;;;;;;;;5021602;28;20357;-57
2023/06/19 00:07:00;;;;;;;12.05;7.55;;;;;;;;;;5021077;28;20033;-56
2023/06/19 00:09:25;;;;;;;12.07;7.45;;;;;;;;;;5021619;28;20052;-56
2023/06/19 00:11:51;;;;;;;11.02;7.20;;;;;;;;;;5021979;28;20119;-53
2023/06/19 00:14:17;;;;;;;15.50;6.97;;;;;;;;;;5020985;28;20071;-56
2023/06/19 00:16:42;;;;;;;10.02;7.50;;;;;;;;;;5021125;28;20124;-57
2023/06/19 00:19:08;;;;;;;13.82;7.75;;;;;;;;;;5020972;28;20029;-55
2023/06/19 00:21:34;;;;;;;15.30;8.50;;;;;;;;;;5021518;28;21837;-54
2023/06/19 00:23:59;;;;;;;10.27;7.13;;;;;;;;;;5022301;28;20053;-58
2023/06/19 00:26:25;;;;;;;12.07;7.20;;;;;;;;;;5023455;28;20086;-56
2023/06/19 00:28:50;;;;;;;10.80;7.30;;;;;;;;;;5020360;28;20029;-57
2023/06/19 00:31:16;;;;;;;12.52;7.45;;;;;;;;;;5020747;28;20396;-54
2023/06/19 00:33:41;;;;;;;12.77;8.02;;;;;;;;;;5020717;28;20020;-56
2023/06/19 00:36:10;;;;;;;9.55;7.70;;;;;;;;;;5021177;28;20415;-56
2023/06/19 00:38:36;;;;;;;9.60;6.82;;;;;;;;;;5026089;28;20037;-55
2023/06/19 00:41:01;;;;;;;14.98;7.40;;;;;;;;;;5021621;28;20071;-58
2023/06/19 00:43:26;;;;;;;11.15;6.88;;;;;;;;;;5042096;28;20041;-55
2023/06/19 00:45:52;;;;;;;9.27;6.80;;;;;;;;;;5020537;28;20033;-58
2023/06/19 00:48:17;;;;;;;10.73;7.10;;;;;;;;;;5019643;28;20064;-53
2023/06/19 00:50:42;;;;;;;13.15;7.47;;;;;;;;;;5020390;28;20092;-58
2023/06/19 00:53:08;;;;;;;10.73;7.05;;;;;;;;;;5020261;28;20029;-56
2023/06/19 00:55:33;;;;;;;10.18;7.35;;;;;;;;;;5022784;28;20065;-57
2023/06/19 00:58:02;;;;;;;11.10;7.72;;;;;;;;;;5020144;28;20048;-54
2023/06/19 01:00:27;;;;;;;13.77;7.63;;;;;;;;;;5020265;28;20025;-56
2023/06/19 01:02:52;;;;;;;11.63;7.47;;;;;;;;;;5020127;28;20028;-55
2023/06/19 01:05:19;;;;;;;9.77;7.05;;;;;;;;;;5019804;28;20116;-55
2023/06/19 01:08:04;;;;;;;21.42;7.90;;;;;;;;;;5019280;28;20174;-57
2023/06/19 01:10:41;;;;;;;14.40;8.00;;;;;;;;;;5002152;28;20127;-56
2023/06/19 01:13:10;;;;;;;13.32;7.55;;;;;;;;;;5004843;28;20050;-57
2023/06/19 01:15:36;;;;;;;10.13;7.13;;;;;;;;;;5006476;28;20044;-57
2023/06/19 01:18:02;;;;;;;9.93;6.85;;;;;;;;;;5002326;28;20025;-57
2023/06/19 01:20:28;;;;;;;12.77;7.18;;;;;;;;;;5003133;28;20195;-58
2023/06/19 01:22:56;;;;;;;11.45;7.65;;;;;;;;;;4985986;28;20048;-57
2023/06/19 01:25:22;;;;;;;9.37;6.67;;;;;;;;;;5003427;28;20138;-56
2023/06/19 01:27:47;;;;;;;13.38;7.55;;;;;;;;;;5002910;28;20046;-58
2023/06/19 01:30:12;;;;;;;8.95;6.68;;;;;;;;;;5003575;28;21889;-57
2023/06/19 01:32:57;;;;;;;9.75;6.97;;;;;;;;;;5002408;28;20282;-55
2023/06/19 01:35:23;;;;;;;13.13;7.53;;;;;;;;;;5004155;28;20057;-56
2023/06/19 01:37:49;;;;;;;10.75;7.28;;;;;;;;;;5008618;28;20041;-54
2023/06/19 01:40:16;;;;;;;11.15;6.82;;;;;;;;;;5002875;28;20101;-53
2023/06/19 01:42:41;;;;;;;13.13;7.80;;;;;;;;;;5006021;28;20053;-52
2023/06/19 01:45:07;;;;;;;11.00;7.43;;;;;;;;;;5002430;28;20679;-54
2023/06/19 01:47:33;;;;;;;11.20;7.35;;;;;;;;;;5009208;28;20046;-54
2023/06/19 01:49:58;;;;;;;11.63;6.95;;;;;;;;;;5023879;28;20071;-53
2023/06/19 01:52:24;;;;;;;10.35;7.20;;;;;;;;;;5022207;28;20507;-57
2023/06/19 01:54:49;;;;;;;11.98;7.45;;;;;;;;;;5019685;28;20077;-56
2023/06/19 01:57:15;;;;;;;10.30;6.35;;;;;;;;;;5019470;28;20704;-57
2023/06/19 01:59:40;;;;;;;11.25;7.28;;;;;;;;;;5021215;28;20146;-57
2023/06/19 02:02:06;;;;;;;9.95;7.15;;;;;;;;;;5018958;28;20024;-58
2023/06/19 02:04:32;;;;;;;10.05;6.90;;;;;;;;;;5019877;28;20590;-57
2023/06/19 02:06:57;;;;;;;12.98;6.90;;;;;;;;;;5019729;28;20079;-56
2023/06/19 02:09:22;;;;;;;11.25;7.07;;;;;;;;;;5018606;28;20083;-58
2023/06/19 02:11:48;;;;;;;11.13;6.85;;;;;;;;;;5020290;28;20570;-54
2023/06/19 02:14:13;;;;;;;10.60;7.87;;;;;;;;;;5020757;28;20033;-54
2023/06/19 02:16:40;;;;;;;11.82;7.18;;;;;;;;;;5020211;28;20285;-52
2023/06/19 02:19:05;;;;;;;13.20;8.18;;;;;;;;;;5019717;28;20900;-56
2023/06/19 02:21:30;;;;;;;13.93;7.38;;;;;;;;;;5025596;28;20117;-58
2023/06/19 02:23:56;;;;;;;9.80;7.03;;;;;;;;;;5022983;28;20220;-55
2023/06/19 02:26:21;;;;;;;12.43;8.05;;;;;;;;;;5022739;28;20021;-56
2023/06/19 02:28:46;;;;;;;12.18;7.25;;;;;;;;;;5022885;28;20025;-54
2023/06/19 02:31:12;;;;;;;11.73;7.43;;;;;;;;;;5023596;28;20041;-56
2023/06/19 02:33:37;;;;;;;10.38;7.22;;;;;;;;;;5022671;28;20493;-57
2023/06/19 02:36:03;;;;;;;10.35;7.28;;;;;;;;;;5027862;28;20036;-56
2023/06/19 02:38:29;;;;;;;10.98;6.55;;;;;;;;;;5022829;28;20651;-59
2023/06/19 02:40:54;;;;;;;10.18;7.07;;;;;;;;;;5040771;28;20049;-55
2023/06/19 02:43:20;;;;;;;11.95;7.65;;;;;;;;;;5027119;28;20036;-54
2023/06/19 02:45:45;;;;;;;10.68;7.18;;;;;;;;;;5022884;28;20106;-57
2023/06/19 02:48:10;;;;;;;11.65;7.72;;;;;;;;;;5025449;28;20098;-57
2023/06/19 02:50:36;;;;;;;15.35;8.05;;;;;;;;;;5022039;28;20059;-52
2023/06/19 02:53:01;;;;;;;11.60;7.25;;;;;;;;;;5022690;28;20103;-57
2023/06/19 02:55:26;;;;;;;14.73;8.82;;;;;;;;;;5099572;27;20553;-55
2023/06/19 02:57:52;;;;;;;12.10;8.23;;;;;;;;;;5097716;27;20041;-55
2023/06/19 03:00:17;;;;;;;14.38;7.50;;;;;;;;;;5097711;27;20038;-52
2023/06/19 03:02:44;;;;;;;15.95;7.20;;;;;;;;;;5098057;27;20027;-55
2023/06/19 03:05:10;;;;;;;12.60;7.53;;;;;;;;;;5083762;27;20576;-56
2023/06/19 03:07:35;;;;;;;12.68;9.45;;;;;;;;;;5097501;27;20035;-58
2023/06/19 03:10:00;;;;;;;10.30;7.70;;;;;;;;;;5053215;27;20035;-57
2023/06/19 03:12:26;;;;;;;12.00;8.43;;;;;;;;;;5097672;27;20069;-52
2023/06/19 03:14:51;;;;;;;13.20;7.07;;;;;;;;;;5098382;27;20557;-55
2023/06/19 03:17:16;;;;;;;16.23;7.80;;;;;;;;;;5098042;27;20571;-57
2023/06/19 03:19:41;;;;;;;17.15;7.70;;;;;;;;;;5098946;27;20622;-56
2023/06/19 03:22:07;;;;;;;15.48;7.45;;;;;;;;;;5098187;27;20517;-56
2023/06/19 03:24:32;;;;;;;12.53;8.07;;;;;;;;;;5098106;27;20608;-55
2023/06/19 03:26:57;;;;;;;13.18;8.32;;;;;;;;;;5045824;27;20338;-57
2023/06/19 03:29:22;;;;;;;10.25;6.70;;;;;;;;;;5023227;28;20025;-53
2023/06/19 03:31:48;;;;;;;11.95;7.38;;;;;;;;;;5022718;28;20021;-55
2023/06/19 03:34:13;;;;;;;14.77;8.02;;;;;;;;;;5027498;28;20107;-58
2023/06/19 03:36:38;;;;;;;12.60;8.60;;;;;;;;;;5026923;28;20033;-56
2023/06/19 03:39:04;;;;;;;13.18;8.10;;;;;;;;;;5025425;28;20052;-55
2023/06/19 03:41:29;;;;;;;15.75;8.00;;;;;;;;;;5027462;28;20021;-55
2023/06/19 03:43:54;;;;;;;15.25;7.72;;;;;;;;;;5022890;28;20140;-53
2023/06/19 03:46:20;;;;;;;15.02;8.82;;;;;;;;;;5022691;28;20488;-55
2023/06/19 03:48:45;;;;;;;12.95;7.85;;;;;;;;;;5026045;28;20028;-54
2023/06/19 03:51:10;;;;;;;12.95;7.68;;;;;;;;;;5021952;28;20152;-55
2023/06/19 03:53:35;;;;;;;12.25;8.23;;;;;;;;;;5022256;28;20029;-54
2023/06/19 03:56:01;;;;;;;11.43;7.60;;;;;;;;;;5021647;28;20048;-56
2023/06/19 03:58:26;;;;;;;14.10;7.20;;;;;;;;;;5021249;28;20487;-58
2023/06/19 04:00:52;;;;;;;13.73;7.00;;;;;;;;;;5021370;28;20060;-55
2023/06/19 04:03:17;;;;;;;10.45;6.90;;;;;;;;;;5021444;28;20583;-57
2023/06/19 04:05:43;;;;;;;21.55;8.02;;;;;;;;;;5021071;28;20052;-57
2023/06/19 04:08:08;;;;;;;10.70;6.88;;;;;;;;;;5021120;28;20562;-56
2023/06/19 04:10:33;;;;;;;11.40;6.60;;;;;;;;;;5022255;28;20063;-57
2023/06/19 04:12:58;;;;;;;11.07;6.95;;;;;;;;;;5024326;28;20351;-57
2023/06/19 04:15:24;;;;;;;11.85;6.68;;;;;;;;;;5024082;28;20041;-54
2023/06/19 04:17:49;;;;;;;13.18;7.40;;;;;;;;;;5022879;28;20112;-55
2023/06/19 04:20:14;;;;;;;13.32;7.18;;;;;;;;;;5023881;28;20020;-55
2023/06/19 04:22:40;;;;;;;14.75;6.82;;;;;;;;;;5023572;28;20290;-57
2023/06/19 04:25:12;;;;;;;11.00;6.25;;;;;;;;;;5023498;28;20033;-56
2023/06/19 04:27:38;;;;;;;10.45;5.57;;;;;;;;;;5023324;28;20025;-57
2023/06/19 04:30:04;;;;;;;8.57;5.75;;;;;;;;;;5023568;28;20481;-55
2023/06/19 04:32:29;;;;;;;10.57;6.18;;;;;;;;;;5022859;28;20060;-55
2023/06/19 04:34:55;;;;;;;10.43;7.20;;;;;;;;;;5025019;28;20436;-56
2023/06/19 04:37:20;;;;;;;9.77;6.38;;;;;;;;;;5028698;28;20472;-56
2023/06/19 04:39:46;;;;;;;8.27;6.40;;;;;;;;;;5009782;28;20143;-53
2023/06/19 04:42:20;;;;;;;10.95;7.00;;;;;;;;;;5024786;28;20039;-55
2023/06/19 04:44:46;;;;;;;12.15;6.28;;;;;;;;;;5020595;28;20033;-54
2023/06/19 04:47:11;;;;;;;9.93;5.85;;;;;;;;;;5020349;28;20109;-58
2023/06/19 04:49:36;;;;;;;8.40;6.35;;;;;;;;;;5020334;28;20384;-58
2023/06/19 04:52:03;;;;;;;10.35;6.60;;;;;;;;;;5020873;28;20064;-56
2023/06/19 04:54:28;;;;;;;7.85;5.38;;;;;;;;;;5019933;28;20044;-55
2023/06/19 04:56:54;;;;;;;8.68;5.22;;;;;;;;;;5020924;28;20024;-58
2023/06/19 04:59:19;;;;;;;14.68;5.78;;;;;;;;;;5019611;28;20037;-59
2023/06/19 05:01:44;;;;;;;9.93;5.13;;;;;;;;;;5022096;28;20523;-58
2023/06/19 05:04:13;;;;;;;10.75;5.80;;;;;;;;;;5020554;28;20449;-57
2023/06/19 05:06:38;;;;;;;7.95;5.65;;;;;;;;;;5020840;28;20112;-53
2023/06/19 05:09:04;;;;;;;6.90;4.83;;;;;;;;;;5020667;28;20035;-58
2023/06/19 05:11:29;;;;;;;6.32;4.63;;;;;;;;;;5020575;28;20614;-57
2023/06/19 05:13:54;;;;;;;8.20;4.97;;;;;;;;;;5019643;28;20033;-53
2023/06/19 05:16:20;;;;;;;11.57;5.05;;;;;;;;;;5022261;28;20126;-57
2023/06/19 05:18:45;;;;;;;8.65;5.50;;;;;;;;;;5019429;28;20081;-58
2023/06/19 05:21:11;;;;;;;8.70;5.28;;;;;;;;;;5019293;28;20091;-56
2023/06/19 05:23:38;;;;;;;14.23;5.25;;;;;;;;;;5019024;28;20029;-58
2023/06/19 05:26:03;;;;;;;8.50;5.55;;;;;;;;;;5018019;28;20021;-56
2023/06/19 05:28:29;;;;;;;8.70;5.30;;;;;;;;;;5015152;28;20049;-57
2023/06/19 05:30:54;;;;;;;8.20;5.03;;;;;;;;;;5019992;28;20120;-57
2023/06/19 05:33:19;;;;;;;7.47;4.97;;;;;;;;;;5019213;28;20033;-56
2023/06/19 05:35:51;;;;;;;7.77;4.50;;;;;;;;;;5020263;28;20282;-57
2023/06/19 05:38:16;;;;;;;8.60;4.78;;;;;;;;;;5027345;28;20258;-56
2023/06/19 05:40:41;;;;;;;8.20;4.75;;;;;;;;;;5024188;28;20032;-55
2023/06/19 05:43:07;;;;;;;10.20;5.10;;;;;;;;;;5024754;28;20040;-58
2023/06/19 05:45:32;;;;;;;9.07;4.90;;;;;;;;;;5018868;28;20720;-53
2023/06/19 05:47:57;;;;;;;7.65;4.90;;;;;;;;;;5022127;28;20274;-56
2023/06/19 05:50:22;;;;;;;10.33;5.37;;;;;;;;;;5006540;28;20029;-56
2023/06/19 05:52:48;;;;;;;7.43;4.63;;;;;;;;;;5019795;28;20293;-57
2023/06/19 05:55:13;;;;;;;12.00;4.57;;;;;;;;;;5024911;28;20167;-57
2023/06/19 05:57:38;;;;;;;9.13;4.20;;;;;;;;;;5022994;28;20270;-57
2023/06/19 06:00:05;;;;;;;10.45;4.93;;;;;;;;;;5040795;28;20361;-55
2023/06/19 06:02:31;;;;;;;11.32;5.32;;;;;;;;;;5020286;28;20039;-57
2023/06/19 06:04:56;;;;;;;16.95;4.85;;;;;;;;;;5022359;28;20064;-54
2023/06/19 06:07:22;;;;;;;8.23;5.17;;;;;;;;;;5024767;28;20428;-54
2023/06/19 06:09:47;;;;;;;11.90;5.17;;;;;;;;;;5009002;28;20357;-55
2023/06/19 06:12:12;;;;;;;12.27;6.10;;;;;;;;;;5027713;28;20780;-54
2023/06/19 06:14:37;;;;;;;13.93;5.95;;;;;;;;;;5041009;28;20358;-55
2023/06/19 06:17:05;;;;;;;12.57;5.00;;;;;;;;;;5026591;28;20029;-55
2023/06/19 06:19:30;;;;;;;12.20;5.45;;;;;;;;;;5025969;28;20039;-56
2023/06/19 06:21:55;;;;;;;7.75;4.03;;;;;;;;;;5024074;28;21066;-55
2023/06/19 06:24:21;;;;;;;7.40;4.93;;;;;;;;;;5024918;28;20064;-56
2023/06/19 06:26:46;;;;;;;12.50;4.77;;;;;;;;;;5026455;28;20364;-51
2023/06/19 06:29:11;;;;;;;7.30;4.70;;;;;;;;;;5026619;28;20043;-58
2023/06/19 06:31:38;;;;;;;11.07;4.70;;;;;;;;;;5028150;28;20033;-57
2023/06/19 06:34:04;;;;;;;9.65;4.70;;;;;;;;;;5021856;28;20251;-58
2023/06/19 06:36:29;;;;;;;6.93;4.40;;;;;;;;;;5021256;28;20489;-55
2023/06/19 06:38:54;;;;;;;6.18;4.32;;;;;;;;;;5019822;28;20044;-56
2023/06/19 06:41:19;;;;;;;5.80;4.30;;;;;;;;;;5025152;28;20033;-53
2023/06/19 06:43:45;;;;;;;6.47;4.43;;;;;;;;;;5019392;28;20033;-55
2023/06/19 06:46:10;;;;;;;10.10;4.33;;;;;;;;;;5019361;28;20080;-55
2023/06/19 06:48:36;;;;;;;7.53;4.20;;;;;;;;;;5028947;28;20029;-57
2023/06/19 06:51:01;;;;;;;19.88;5.28;;;;;;;;;;5033591;28;20511;-54
2023/06/19 06:53:27;;;;;;;9.03;4.87;;;;;;;;;;5038049;28;20400;-58
2023/06/19 06:55:53;;;;;;;6.60;4.03;;;;;;;;;;5039432;28;20343;-57
2023/06/19 06:58:18;;;;;;;8.60;4.53;;;;;;;;;;5039060;28;20029;-59
2023/06/19 07:00:44;;;;;;;9.03;4.40;;;;;;;;;;5037304;28;20033;-52
2023/06/19 07:03:09;;;;;;;9.60;5.20;;;;;;;;;;5035774;28;20024;-57
2023/06/19 07:05:34;;;;;;;6.13;4.33;;;;;;;;;;5042091;28;20032;-54
2023/06/19 07:08:00;;;;;;;9.67;4.63;;;;;;;;;;5040819;28;20257;-59
2023/06/19 07:10:25;;;;;;;8.27;4.50;;;;;;;;;;5038639;28;20590;-54
2023/06/19 07:12:51;;;;;;;7.23;4.53;;;;;;;;;;5044277;28;20349;-56
2023/06/19 07:15:16;;;;;;;5.82;4.63;;;;;;;;;;5046048;28;20024;-57
2023/06/19 07:17:43;;;;;;;8.50;4.38;;;;;;;;;;5041002;28;20025;-57
2023/06/19 07:20:08;;;;;;;6.38;4.25;;;;;;;;;;5051219;28;20032;-54
2023/06/19 07:22:33;;;;;;;6.18;4.35;;;;;;;;;;5018989;28;20033;-53
2023/06/19 07:24:59;;;;;;;7.47;3.77;;;;;;;;;;5034487;28;20441;-56
2023/06/19 07:27:27;;;;;;;9.68;4.45;;;;;;;;;;5035767;28;20025;-57
2023/06/19 07:29:52;;;;;;;8.05;4.40;;;;;;;;;;5040501;28;20040;-59
2023/06/19 07:32:18;;;;;;;8.45;4.63;;;;;;;;;;5043109;28;20037;-60
2023/06/19 07:34:43;;;;;;;7.43;4.53;;;;;;;;;;5041360;28;20731;-55
2023/06/19 07:37:08;;;;;;;7.60;4.60;;;;;;;;;;5028239;28;20028;-59
2023/06/19 07:39:33;;;;;;;8.67;4.33;;;;;;;;;;5035712;28;20487;-58
2023/06/19 07:41:59;;;;;;;6.93;4.57;;;;;;;;;;5037733;28;20032;-56
2023/06/19 07:44:24;;;;;;;5.10;4.10;;;;;;;;;;5040820;28;20885;-56
2023/06/19 07:46:49;;;;;;;8.17;4.30;;;;;;;;;;5037296;28;20029;-56
2023/06/19 07:49:14;;;;;;;6.83;4.30;;;;;;;;;;5029719;28;20276;-52
2023/06/19 07:51:40;;;;;;;9.95;4.68;;;;;;;;;;5031076;28;20599;-54
2023/06/19 07:54:05;;;;;;;11.07;4.40;;;;;;;;;;5039645;28;20025;-50
2023/06/19 07:56:31;;;;;;;7.70;4.30;;;;;;;;;;5042000;28;20325;-56
2023/06/19 07:58:57;;;;;;;5.13;4.22;;;;;;;;;;5044859;28;20017;-53
2023/06/19 08:01:22;;;;;;;14.13;4.73;;;;;;;;;;5033237;28;20705;-52
2023/06/19 08:03:47;;;;;;;6.03;4.47;;;;;;;;;;5034738;28;20275;-55
2023/06/19 08:06:12;;;;;;;5.43;4.40;;;;;;;;;;5041083;28;20414;-58
2023/06/19 08:08:38;;;;;;;4.40;3.50;;;;;;;;;;5041953;28;20049;-56
2023/06/19 08:11:03;;;;;;;5.27;4.20;;;;;;;;;;5031324;28;20401;-54
2023/06/19 08:13:28;;;;;;;4.27;3.87;;;;;;;;;;5031802;28;20526;-59
2023/06/19 08:15:54;;;;;;;8.33;4.13;;;;;;;;;;5040707;28;20768;-56
2023/06/19 08:18:19;;;;;;;5.82;4.05;;;;;;;;;;5030308;28;20277;-56
2023/06/19 08:20:44;;;;;;;5.17;3.93;;;;;;;;;;5025673;28;20600;-54
2023/06/19 08:23:09;;;;;;;6.27;4.20;;;;;;;;;;5036898;28;20033;-58
2023/06/19 08:25:35;;;;;;;5.23;4.13;;;;;;;;;;5025842;28;20025;-54
2023/06/19 08:28:00;;;;;;;5.20;4.27;;;;;;;;;;5025800;28;20018;-58
2023/06/19 08:30:25;;;;;;;7.63;4.50;;;;;;;;;;5043431;28;20349;-55
2023/06/19 08:32:51;;;;;;;6.22;4.10;;;;;;;;;;5037858;28;20067;-53
2023/06/19 08:35:16;;;;;;;4.80;4.10;;;;;;;;;;5045088;28;20082;-55
2023/06/19 08:37:41;;;;;;;5.00;4.50;;;;;;;;;;5045433;28;20021;-57
2023/06/19 08:40:09;;;;;;;11.63;4.40;;;;;;;;;;5041978;28;20081;-55
2023/06/19 08:42:34;;;;;;;6.43;4.50;;;;;;;;;;5032533;28;20024;-57
2023/06/19 08:45:00;;;;;;;5.60;4.15;;;;;;;;;;5037514;28;20476;-56
2023/06/19 08:47:34;;;;;;;5.85;4.28;;;;;;;;;;5032192;28;20486;-58
2023/06/19 08:49:59;;;;;;;5.60;4.47;;;;;;;;;;5032705;28;20163;-56
2023/06/19 08:52:25;;;;;;;6.50;5.07;;;;;;;;;;5043061;28;20140;-53
2023/06/19 08:54:51;;;;;;;5.47;4.07;;;;;;;;;;5036568;28;20298;-53
2023/06/19 08:57:17;;;;;;;6.47;4.28;;;;;;;;;;5033337;28;20021;-56
2023/06/19 08:59:49;;;;;;;8.30;4.38;;;;;;;;;;5025742;28;20120;-54
2023/06/19 09:02:15;;;;;;;8.25;4.40;;;;;;;;;;5038540;28;20097;-52
2023/06/19 09:04:40;;;;;;;7.90;4.63;;;;;;;;;;5032146;28;20051;-52
2023/06/19 09:07:07;;;;;;;13.83;4.63;;;;;;;;;;5028607;28;20266;-57
2023/06/19 09:09:32;;;;;;;5.22;4.10;;;;;;;;;;5032974;28;20057;-51
2023/06/19 09:12:10;;;;;;;8.80;4.93;;;;;;;;;;5040940;28;20063;-56
2023/06/19 09:14:36;;;;;;;5.38;4.03;;;;;;;;;;5026286;28;20431;-51
2023/06/19 09:17:02;;;;;;;4.20;3.45;;;;;;;;;;5038167;28;20033;-55
2023/06/19 09:19:27;;;;;;;10.43;4.07;;;;;;;;;;5042762;28;20041;-55
2023/06/19 09:21:52;;;;;;;4.17;3.77;;;;;;;;;;5027892;28;20025;-53
2023/06/19 09:24:18;;;;;;;6.00;4.40;;;;;;;;;;5039456;28;20132;-53
2023/06/19 09:26:43;;;;;;;4.57;3.93;;;;;;;;;;5050099;28;20277;-53
2023/06/19 09:29:18;;;;;;;6.13;3.80;;;;;;;;;;5042740;28;20408;-56
2023/06/19 09:31:44;;;;;;;6.30;4.32;;;;;;;;;;5036572;28;20297;-54
2023/06/19 09:34:09;;;;;;;5.43;3.70;;;;;;;;;;5045031;28;20496;-51
2023/06/19 09:36:35;;;;;;;7.90;4.80;;;;;;;;;;5041863;28;20033;-56
2023/06/19 09:39:01;;;;;;;4.90;4.10;;;;;;;;;;5024804;28;20266;-54
2023/06/19 09:41:28;;;;;;;4.63;3.90;;;;;;;;;;5024925;28;20409;-53
2023/06/19 09:43:57;;;;;;;5.60;4.32;;;;;;;;;;5040699;28;20021;-51
2023/06/19 09:46:26;;;;;;;9.55;4.43;;;;;;;;;;5045212;28;20112;-55
2023/06/19 09:48:54;;;;;;;5.28;4.28;;;;;;;;;;5045247;28;20400;-51
2023/06/19 09:51:19;;;;;;;;;;;;;;;;;;5031313;28;20132;-53
2023/06/19 09:53:45;;;;;;;4.30;3.90;;;;;;;;;;5025783;28;19996;-52
2023/06/19 09:56:12;;;;;;;8.50;4.70;;;;;;;;;;5025236;28;20056;-51
2023/06/19 09:58:38;;;;;;;8.13;4.25;;;;;;;;;;5024859;28;20014;-49
2023/06/19 10:01:04;;;;;;;6.03;4.30;;;;;;;;;;5025223;28;20354;-54
2023/06/19 10:03:33;;;;;;;7.55;3.95;;;;;;;;;;5025085;28;20017;-53
2023/06/19 10:05:59;;;;;;;7.88;4.20;;;;;;;;;;5025112;28;20060;-52
2023/06/19 10:08:30;;;;;;;9.13;4.22;;;;;;;;;;5040168;28;20049;-56
2023/06/19 10:10:56;;;;;;;4.50;4.10;;;;;;;;;;5040813;28;20469;-54
2023/06/19 10:13:31;;;;;;;10.48;4.40;;;;;;;;;;5044245;28;20017;-54
2023/06/19 10:15:56;;;;;;;7.03;4.53;;;;;;;;;;5041816;28;20033;-52
2023/06/19 10:18:24;;;;;;;5.30;4.23;;;;;;;;;;5032656;28;20106;-56
2023/06/19 10:20:50;;;;;;;8.20;4.30;;;;;;;;;;5041136;28;20586;-56
2023/06/19 10:23:17;;;;;;;4.47;4.03;;;;;;;;;;5035653;28;20100;-54
2023/06/19 10:25:43;;;;;;;5.75;4.00;;;;;;;;;;5023112;28;20129;-53
2023/06/19 10:28:19;;;;;;;5.60;4.45;;;;;;;;;;5024808;28;20116;-55
2023/06/19 10:30:45;;;;;;;6.15;3.85;;;;;;;;;;5037310;28;20056;-51
2023/06/19 10:33:10;;;;;;;7.75;4.25;;;;;;;;;;5036744;28;20468;-56
2023/06/19 10:35:40;;;;;;;5.32;4.13;;;;;;;;;;5030742;28;20029;-55
2023/06/19 10:38:09;;;;;;;5.43;3.90;;;;;;;;;;5031717;28;20036;-53
2023/06/19 10:40:34;;;;;;;;;;;;;;;;;;5029629;28;20033;-53
2023/06/19 10:42:59;;;;;;;5.27;3.93;;;;;;;;;;5036289;28;20429;-51
2023/06/19 10:45:28;;;;;;;4.97;4.47;;;;;;;;;;5037249;28;20124;-52
2023/06/19 10:47:54;;;;;;;9.73;5.60;;;;;;;;;;5035329;28;20273;-52
2023/06/19 10:50:19;;;;;;;5.32;4.10;;;;;;;;;;5036216;28;20495;-54
2023/06/19 10:52:45;;;;;;;5.38;4.55;;;;;;;;;;5026723;28;20044;-55
2023/06/19 10:55:12;;;;;;;5.68;4.38;;;;;;;;;;5032997;28;20072;-56
2023/06/19 10:57:39;;;;;;;4.43;4.03;;;;;;;;;;5032721;28;20030;-55
2023/06/19 11:00:14;;;;;;;11.57;4.45;;;;;;;;;;5027704;28;21221;-49
2023/06/19 11:02:43;;;;;;;9.43;4.40;;;;;;;;;;5034726;28;20128;-56
2023/06/19 11:05:12;;;;;;;7.32;4.68;;;;;;;;;;5028079;28;20763;-54
2023/06/19 11:07:37;;;;;;;13.10;5.25;;;;;;;;;;5037784;28;20033;-51
2023/06/19 11:10:03;;;;;;;5.72;4.28;;;;;;;;;;5026396;28;20026;-55
2023/06/19 11:12:28;;;;;;;10.63;4.60;;;;;;;;;;5030344;28;20095;-54
2023/06/19 11:14:54;;;;;;;8.50;4.70;;;;;;;;;;5042811;28;20036;-54
2023/06/19 11:17:21;;;;;;;5.37;4.43;;;;;;;;;;5033884;28;20037;-53
2023/06/19 11:19:47;;;;;;;9.23;4.78;;;;;;;;;;5036748;28;20647;-56
2023/06/19 11:22:12;;;;;;;8.60;4.95;;;;;;;;;;5041114;28;20091;-54
2023/06/19 11:24:42;;;;;;;6.03;4.22;;;;;;;;;;5031752;28;20033;-56
2023/06/19 11:27:15;;;;;;;7.65;4.70;;;;;;;;;;5034985;28;20032;-55
2023/06/19 11:29:41;;;;;;;9.38;4.55;;;;;;;;;;5027834;28;20047;-58
2023/06/19 11:32:12;;;;;;;4.77;4.27;;;;;;;;;;5028150;28;20103;-55
2023/06/19 11:34:37;;;;;;;10.68;5.00;;;;;;;;;;5041452;28;20031;-52
2023/06/19 11:37:11;;;;;;;5.00;4.40;;;;;;;;;;5037296;28;20033;-56
2023/06/19 11:39:36;;;;;;;8.77;5.15;;;;;;;;;;5039469;28;20121;-56
2023/06/19 11:42:02;;;;;;;7.07;4.63;;;;;;;;;;5043576;28;20068;-53
2023/06/19 11:44:27;;;;;;;10.35;4.57;;;;;;;;;;5054360;28;20024;-49
2023/06/19 11:46:56;;;;;;;4.77;4.17;;;;;;;;;;5037998;28;20036;-56
2023/06/19 11:49:21;;;;;;;;;;;;;;;;;;5025638;28;20041;-55
2023/06/19 11:51:46;;;;;;;6.03;4.10;;;;;;;;;;5026996;28;20373;-53
2023/06/19 11:54:14;;;;;;;5.73;3.80;;;;;;;;;;5029467;28;20255;-54
2023/06/19 11:56:40;;;;;;;6.00;4.25;;;;;;;;;;5034743;28;20032;-51
2023/06/19 11:59:05;;;;;;;6.82;4.82;;;;;;;;;;5034288;28;20134;-56
2023/06/19 12:01:34;;;;;;;7.27;4.47;;;;;;;;;;5031525;28;20025;-55
2023/06/19 12:04:00;;;;;;;8.35;4.70;;;;;;;;;;5035839;28;20259;-51
2023/06/19 12:06:26;;;;;;;5.30;4.65;;;;;;;;;;5037709;28;20503;-54
2023/06/19 12:08:51;;;;;;;6.90;4.63;;;;;;;;;;5042109;28;20029;-51
2023/06/19 12:11:16;;;;;;;4.90;4.40;;;;;;;;;;5041331;28;20025;-56
2023/06/19 12:13:42;;;;;;;11.63;5.47;;;;;;;;;;5042523;28;20258;-51
2023/06/19 12:16:08;;;;;;;6.05;4.20;;;;;;;;;;5032887;28;20112;-54
2023/06/19 12:18:33;;;;;;;8.48;4.78;;;;;;;;;;5026977;28;20024;-53
2023/06/19 12:20:58;;;;;;;5.88;4.38;;;;;;;;;;5043431;28;20033;-53
2023/06/19 12:23:24;;;;;;;7.10;4.60;;;;;;;;;;5043394;28;20040;-56
2023/06/19 12:25:49;;;;;;;6.73;4.30;;;;;;;;;;5039221;28;20016;-54
2023/06/19 12:28:18;;;;;;;7.80;4.82;;;;;;;;;;5033975;28;20025;-54
2023/06/19 12:30:44;;;;;;;11.93;5.32;;;;;;;;;;5054091;28;20469;-49
2023/06/19 12:33:09;;;;;;;6.47;4.53;;;;;;;;;;5040754;28;20033;-53
2023/06/19 12:35:34;;;;;;;5.45;4.55;;;;;;;;;;5038790;28;20044;-52
2023/06/19 12:38:00;;;;;;;6.37;4.83;;;;;;;;;;5026336;28;20029;-53
2023/06/19 12:40:25;;;;;;;9.17;5.10;;;;;;;;;;5025980;28;20053;-51
2023/06/19 12:42:50;;;;;;;7.72;4.65;;;;;;;;;;5035173;28;20033;-54
2023/06/19 12:45:16;;;;;;;14.90;4.90;;;;;;;;;;5052097;28;20396;-56
2023/06/19 12:47:41;;;;;;;8.37;4.90;;;;;;;;;;5065518;28;20031;-53
2023/06/19 12:50:07;;;;;;;6.32;5.00;;;;;;;;;;5050726;28;20357;-54
2023/06/19 12:52:32;;;;;;;10.23;5.20;;;;;;;;;;5031684;28;20152;-57
2023/06/19 12:54:59;;;;;;;7.20;5.07;;;;;;;;;;5033993;28;20563;-54
2023/06/19 12:57:24;;;;;;;8.35;5.15;;;;;;;;;;5029473;28;20071;-55
2023/06/19 12:59:50;;;;;;;8.47;4.47;;;;;;;;;;5043761;28;20021;-53
2023/06/19 13:02:15;;;;;;;11.97;4.57;;;;;;;;;;5040714;28;20044;-52
2023/06/19 13:04:40;;;;;;;8.30;4.80;;;;;;;;;;5030220;28;20021;-56
2023/06/19 13:07:05;;;;;;;8.10;4.67;;;;;;;;;;5042467;28;20017;-53
2023/06/19 13:09:31;;;;;;;6.33;4.87;;;;;;;;;;5042952;28;20021;-56
2023/06/19 13:11:56;;;;;;;7.33;4.80;;;;;;;;;;5046649;28;20363;-55
2023/06/19 13:14:21;;;;;;;7.47;4.53;;;;;;;;;;5036246;28;20385;-55
2023/06/19 13:16:46;;;;;;;9.57;4.67;;;;;;;;;;5042218;28;20073;-57
2023/06/19 13:19:12;;;;;;;7.60;4.63;;;;;;;;;;5028731;28;20319;-56
2023/06/19 13:21:37;;;;;;;11.55;5.07;;;;;;;;;;5040597;28;20255;-56
2023/06/19 13:24:03;;;;;;;8.38;5.20;;;;;;;;;;5027303;28;20021;-53
2023/06/19 13:26:28;;;;;;;10.27;5.00;;;;;;;;;;5041992;28;20037;-56
2023/06/19 13:28:53;;;;;;;6.60;4.73;;;;;;;;;;5036143;28;20461;-55
2023/06/19 13:31:18;;;;;;;8.80;5.57;;;;;;;;;;5042990;28;20069;-55
2023/06/19 13:33:44;;;;;;;7.90;5.10;;;;;;;;;;5032991;28;20025;-58
2023/06/19 13:36:09;;;;;;;10.10;5.00;;;;;;;;;;5039897;28;20090;-56
2023/06/19 13:38:34;;;;;;;8.23;5.00;;;;;;;;;;5043744;28;20028;-57
2023/06/19 13:40:59;;;;;;;9.37;5.53;;;;;;;;;;5043183;28;20104;-54
2023/06/19 13:43:25;;;;;;;7.30;5.30;;;;;;;;;;5037219;28;20469;-57
2023/06/19 13:45:50;;;;;;;5.95;4.85;;;;;;;;;;5028408;28;20262;-52
2023/06/19 13:48:15;;;;;;;5.67;4.80;;;;;;;;;;5029653;28;20158;-57
2023/06/19 13:50:41;;;;;;;15.18;4.90;;;;;;;;;;5032476;28;20060;-56
2023/06/19 13:53:06;;;;;;;8.97;5.17;;;;;;;;;;5031162;28;20207;-58
2023/06/19 13:55:31;;;;;;;6.50;4.85;;;;;;;;;;5026697;28;20680;-52
2023/06/19 13:57:57;;;;;;;6.57;4.70;;;;;;;;;;5044396;28;20013;-57
2023/06/19 14:00:22;;;;;;;5.63;4.97;;;;;;;;;;5036985;28;20582;-52
2023/06/19 14:02:47;;;;;;;7.47;4.67;;;;;;;;;;5056644;28;20031;-57
2023/06/19 14:05:14;;;;;;;8.47;5.20;;;;;;;;;;5054280;28;20254;-58
2023/06/19 14:07:40;;;;;;;5.88;4.22;;;;;;;;;;5031695;28;20294;-53
2023/06/19 14:10:05;;;;;;;8.77;4.88;;;;;;;;;;5040249;28;20029;-56
2023/06/19 14:12:31;;;;;;;9.88;4.90;;;;;;;;;;5034172;28;20017;-56
2023/06/19 14:14:56;;;;;;;6.35;4.53;;;;;;;;;;5034318;28;20033;-55
2023/06/19 14:17:21;;;;;;;6.05;4.78;;;;;;;;;;5045804;28;20464;-57
2023/06/19 14:19:47;;;;;;;18.38;5.30;;;;;;;;;;5030030;28;20032;-55
2023/06/19 14:22:12;;;;;;;20.67;6.00;;;;;;;;;;5033989;28;20032;-55
2023/06/19 14:24:37;;;;;;;7.70;4.90;;;;;;;;;;5038182;28;20122;-56
2023/06/19 14:27:03;;;;;;;6.57;4.50;;;;;;;;;;5038617;28;20021;-58
2023/06/19 14:29:28;;;;;;;7.97;5.38;;;;;;;;;;5033685;28;20065;-53
2023/06/19 14:31:53;;;;;;;8.80;5.37;;;;;;;;;;5032476;28;20354;-57